DAL2174 KATL-KCMH
Flight info
| Callsign | DAL2174 |
|---|---|
| Flight time | 1h 0m |
| Altitude | 37000 |
| Route | PADGT2 SMTTH Q67 JONEN MCGNS SCRLT2 |
| Aircraft | A319/M-SDE3FGHIRWY/LB1 |
Departure
| Time | 2026-05-09 00:04 |
|---|---|
| Airport | Hartsfield Jackson Atlanta International Airport (KATL) |
Arrival
| Time | 2026-05-09 01:05 |
|---|---|
| Airport | John Glenn Columbus International Airport (KCMH) |
| Time | Latitude | Longitude | Altitude | Speed | Heading |
|---|---|---|---|---|---|
| 2026-05-08 23:40 | 33.63872 | -84.43544 | 1036 ft | 0 kts | 270° |
| 2026-05-08 23:50 | 33.63872 | -84.43537 | 1035 ft | 2 kts | 270° |
| 2026-05-08 23:50 | 33.63871 | -84.43513 | 1035 ft | 3 kts | 272° |
| 2026-05-08 23:51 | 33.63870 | -84.43489 | 1035 ft | 3 kts | 282° |
| 2026-05-08 23:51 | 33.63864 | -84.43467 | 1035 ft | 3 kts | 320° |
| 2026-05-08 23:51 | 33.63855 | -84.43461 | 1035 ft | 0 kts | 360° |
| 2026-05-08 23:53 | 33.63867 | -84.43461 | 1035 ft | 6 kts | 0° |
| 2026-05-08 23:54 | 33.63916 | -84.43461 | 1035 ft | 8 kts | 360° |
| 2026-05-08 23:54 | 33.63971 | -84.43461 | 1035 ft | 8 kts | 360° |
| 2026-05-08 23:54 | 33.64035 | -84.43461 | 1035 ft | 10 kts | 360° |
| 2026-05-08 23:55 | 33.64183 | -84.43460 | 1035 ft | 11 kts | 0° |
| 2026-05-08 23:55 | 33.64263 | -84.43461 | 1036 ft | 12 kts | 358° |
| 2026-05-08 23:55 | 33.64340 | -84.43460 | 1036 ft | 0 kts | 0° |
| 2026-05-08 23:58 | 33.64343 | -84.43460 | 1036 ft | 2 kts | 0° |
| 2026-05-08 23:58 | 33.64393 | -84.43460 | 1036 ft | 9 kts | 360° |
| 2026-05-08 23:58 | 33.64454 | -84.43419 | 1036 ft | 14 kts | 63° |
| 2026-05-08 23:58 | 33.64460 | -84.43300 | 1036 ft | 15 kts | 90° |
| 2026-05-08 23:59 | 33.64460 | -84.43176 | 1036 ft | 15 kts | 89° |
| 2026-05-08 23:59 | 33.64460 | -84.43048 | 1036 ft | 16 kts | 90° |
| 2026-05-08 23:59 | 33.64460 | -84.42914 | 1036 ft | 16 kts | 90° |
| 2026-05-08 23:59 | 33.64463 | -84.42773 | 1035 ft | 17 kts | 84° |
| 2026-05-09 00:00 | 33.64469 | -84.42626 | 1035 ft | 18 kts | 90° |
| 2026-05-09 00:00 | 33.64469 | -84.42474 | 1035 ft | 19 kts | 90° |
| 2026-05-09 00:00 | 33.64470 | -84.42318 | 1035 ft | 19 kts | 90° |
| 2026-05-09 00:00 | 33.64515 | -84.42172 | 1035 ft | 19 kts | 60° |
| 2026-05-09 00:01 | 33.64543 | -84.42017 | 1035 ft | 19 kts | 90° |
| 2026-05-09 00:01 | 33.64543 | -84.41854 | 1035 ft | 20 kts | 90° |
| 2026-05-09 00:01 | 33.64543 | -84.41688 | 1036 ft | 20 kts | 89° |
| 2026-05-09 00:01 | 33.64543 | -84.41520 | 1036 ft | 20 kts | 90° |
| 2026-05-09 00:02 | 33.64543 | -84.41349 | 1036 ft | 21 kts | 90° |
| 2026-05-09 00:02 | 33.64543 | -84.41174 | 1036 ft | 21 kts | 90° |
| 2026-05-09 00:02 | 33.64544 | -84.40995 | 1035 ft | 22 kts | 90° |
| 2026-05-09 00:02 | 33.64554 | -84.40812 | 1035 ft | 22 kts | 67° |
| 2026-05-09 00:03 | 33.64571 | -84.40640 | 1035 ft | 16 kts | 89° |
| 2026-05-09 00:03 | 33.64644 | -84.40573 | 1033 ft | 16 kts | 352° |
| 2026-05-09 00:03 | 33.64680 | -84.40684 | 1033 ft | 17 kts | 269° |
| 2026-05-09 00:03 | 33.64679 | -84.41041 | 1036 ft | 80 kts | 270° |
| 2026-05-09 00:04 | 33.64678 | -84.41978 | 1036 ft | 143 kts | 270° |
| 2026-05-09 00:04 | 33.64674 | -84.43295 | 1427 ft | 158 kts | 268° |
| 2026-05-09 00:04 | 33.64667 | -84.44632 | 2075 ft | 162 kts | 267° |
| 2026-05-09 00:04 | 33.64708 | -84.45999 | 2690 ft | 169 kts | 280° |
| 2026-05-09 00:05 | 33.65213 | -84.47390 | 3037 ft | 194 kts | 295° |
| 2026-05-09 00:05 | 33.65822 | -84.48942 | 3356 ft | 221 kts | 292° |
| 2026-05-09 00:05 | 33.66492 | -84.50728 | 3775 ft | 247 kts | 292° |
| 2026-05-09 00:05 | 33.67228 | -84.52690 | 4380 ft | 266 kts | 293° |
| 2026-05-09 00:06 | 33.68006 | -84.54733 | 5312 ft | 271 kts | 295° |
| 2026-05-09 00:06 | 33.69133 | -84.56575 | 6274 ft | 278 kts | 316° |
| 2026-05-09 00:06 | 33.70789 | -84.57806 | 7239 ft | 285 kts | 338° |
| 2026-05-09 00:06 | 33.72730 | -84.58197 | 8164 ft | 291 kts | 359° |
| 2026-05-09 00:07 | 33.74793 | -84.58161 | 9131 ft | 294 kts | 359° |
| 2026-05-09 00:07 | 33.76852 | -84.58127 | 10031 ft | 298 kts | 358° |
| 2026-05-09 00:07 | 33.78935 | -84.58095 | 10959 ft | 300 kts | 356° |
| 2026-05-09 00:07 | 33.81005 | -84.57984 | 11851 ft | 305 kts | 3° |
| 2026-05-09 00:08 | 33.83176 | -84.57372 | 12305 ft | 330 kts | 11° |
| 2026-05-09 00:08 | 33.85429 | -84.56567 | 12539 ft | 354 kts | 11° |
| 2026-05-09 00:08 | 33.87859 | -84.55677 | 12708 ft | 377 kts | 12° |
| 2026-05-09 00:08 | 33.90425 | -84.54722 | 13050 ft | 392 kts | 12° |
| 2026-05-09 00:09 | 33.93052 | -84.53734 | 13670 ft | 398 kts | 12° |
| 2026-05-09 00:09 | 33.95712 | -84.52732 | 14323 ft | 403 kts | 11° |
| 2026-05-09 00:09 | 33.98397 | -84.51724 | 14988 ft | 406 kts | 11° |
| 2026-05-09 00:09 | 34.01108 | -84.50714 | 15634 ft | 410 kts | 10° |
| 2026-05-09 00:10 | 34.03851 | -84.49696 | 16274 ft | 414 kts | 10° |
| 2026-05-09 00:10 | 34.06616 | -84.48673 | 16897 ft | 418 kts | 9° |
| 2026-05-09 00:10 | 34.09408 | -84.47643 | 17509 ft | 421 kts | 9° |
| 2026-05-09 00:10 | 34.12224 | -84.46606 | 18083 ft | 425 kts | 9° |
| 2026-05-09 00:11 | 34.15069 | -84.45557 | 18638 ft | 429 kts | 9° |
| 2026-05-09 00:11 | 34.17934 | -84.44499 | 19159 ft | 433 kts | 9° |
| 2026-05-09 00:11 | 34.20827 | -84.43429 | 19644 ft | 437 kts | 9° |
| 2026-05-09 00:11 | 34.23748 | -84.42347 | 20107 ft | 442 kts | 8° |
| 2026-05-09 00:12 | 34.26699 | -84.41251 | 20566 ft | 446 kts | 9° |
| 2026-05-09 00:12 | 34.29679 | -84.40173 | 20992 ft | 446 kts | 5° |
| 2026-05-09 00:12 | 34.32716 | -84.39399 | 21399 ft | 448 kts | 3° |
| 2026-05-09 00:12 | 34.35778 | -84.38662 | 21811 ft | 450 kts | 2° |
| 2026-05-09 00:13 | 34.38873 | -84.37921 | 22193 ft | 455 kts | 2° |
| 2026-05-09 00:13 | 34.41989 | -84.37177 | 22664 ft | 458 kts | 2° |
| 2026-05-09 00:13 | 34.45104 | -84.36433 | 23137 ft | 457 kts | 2° |
| 2026-05-09 00:13 | 34.48230 | -84.35673 | 23518 ft | 460 kts | 2° |
| 2026-05-09 00:14 | 34.51375 | -84.34907 | 23917 ft | 462 kts | 2° |
| 2026-05-09 00:14 | 34.54538 | -84.34142 | 24335 ft | 465 kts | 2° |
| 2026-05-09 00:14 | 34.57719 | -84.33372 | 24701 ft | 467 kts | 1° |
| 2026-05-09 00:14 | 34.60924 | -84.32598 | 24974 ft | 472 kts | 1° |
| 2026-05-09 00:15 | 34.64159 | -84.31816 | 25242 ft | 476 kts | 2° |
| 2026-05-09 00:15 | 34.67413 | -84.31026 | 25533 ft | 479 kts | 1° |
| 2026-05-09 00:15 | 34.70693 | -84.30230 | 25809 ft | 482 kts | 1° |
| 2026-05-09 00:15 | 34.73995 | -84.29430 | 26080 ft | 486 kts | 1° |
| 2026-05-09 00:16 | 34.77327 | -84.28623 | 26307 ft | 490 kts | 1° |
| 2026-05-09 00:16 | 34.80627 | -84.27820 | 26601 ft | 492 kts | 1° |
| 2026-05-09 00:16 | 34.83992 | -84.26998 | 26836 ft | 495 kts | 1° |
| 2026-05-09 00:16 | 34.87379 | -84.26171 | 27099 ft | 498 kts | 1° |
| 2026-05-09 00:17 | 34.90776 | -84.25338 | 27465 ft | 498 kts | 1° |
| 2026-05-09 00:17 | 34.94177 | -84.24505 | 27838 ft | 499 kts | 1° |
| 2026-05-09 00:17 | 34.97583 | -84.23668 | 28182 ft | 500 kts | 0° |
| 2026-05-09 00:17 | 35.00996 | -84.22833 | 28540 ft | 501 kts | 360° |
| 2026-05-09 00:18 | 35.04410 | -84.21998 | 28900 ft | 501 kts | 360° |
| 2026-05-09 00:18 | 35.07829 | -84.21163 | 29217 ft | 502 kts | 359° |
| 2026-05-09 00:18 | 35.11264 | -84.20325 | 29512 ft | 504 kts | 359° |
| 2026-05-09 00:18 | 35.14711 | -84.19484 | 29799 ft | 505 kts | 358° |
| 2026-05-09 00:19 | 35.18157 | -84.18646 | 30185 ft | 506 kts | 358° |
| 2026-05-09 00:19 | 35.21610 | -84.17799 | 30536 ft | 507 kts | 358° |
| 2026-05-09 00:19 | 35.25067 | -84.16948 | 30913 ft | 507 kts | 358° |
| 2026-05-09 00:19 | 35.28529 | -84.16094 | 31295 ft | 507 kts | 357° |
| 2026-05-09 00:20 | 35.31984 | -84.15237 | 31687 ft | 506 kts | 357° |
| 2026-05-09 00:20 | 35.35425 | -84.14385 | 32059 ft | 504 kts | 357° |
| 2026-05-09 00:20 | 35.38863 | -84.13536 | 32423 ft | 504 kts | 356° |
| 2026-05-09 00:20 | 35.42302 | -84.12684 | 32785 ft | 504 kts | 356° |
| 2026-05-09 00:21 | 35.45739 | -84.11830 | 33131 ft | 504 kts | 356° |
| 2026-05-09 00:21 | 35.49182 | -84.10978 | 33465 ft | 505 kts | 356° |
| 2026-05-09 00:21 | 35.52620 | -84.10135 | 33818 ft | 504 kts | 356° |
| 2026-05-09 00:21 | 35.56063 | -84.09290 | 34196 ft | 504 kts | 356° |
| 2026-05-09 00:22 | 35.59499 | -84.08443 | 34585 ft | 503 kts | 356° |
| 2026-05-09 00:22 | 35.62930 | -84.07594 | 34948 ft | 503 kts | 356° |
| 2026-05-09 00:22 | 35.66310 | -84.06750 | 35294 ft | 502 kts | 356° |
| 2026-05-09 00:22 | 35.69721 | -84.05895 | 35679 ft | 500 kts | 356° |
| 2026-05-09 00:23 | 35.73125 | -84.05043 | 36032 ft | 499 kts | 356° |
| 2026-05-09 00:23 | 35.76520 | -84.04191 | 36356 ft | 497 kts | 355° |
| 2026-05-09 00:23 | 35.79908 | -84.03346 | 36637 ft | 497 kts | 355° |
| 2026-05-09 00:23 | 35.83294 | -84.02506 | 36914 ft | 496 kts | 355° |
| 2026-05-09 00:24 | 35.86675 | -84.01668 | 36992 ft | 496 kts | 355° |
| 2026-05-09 00:24 | 35.93408 | -83.98940 | 36998 ft | 529 kts | 14° |
| 2026-05-09 00:25 | 35.98777 | -83.95140 | 36998 ft | 536 kts | 18° |
| 2026-05-09 00:25 | 36.05212 | -83.90510 | 36998 ft | 536 kts | 17° |
| 2026-05-09 00:26 | 36.11665 | -83.85892 | 36999 ft | 535 kts | 17° |
| 2026-05-09 00:26 | 36.18118 | -83.81307 | 36998 ft | 535 kts | 17° |
| 2026-05-09 00:27 | 36.24575 | -83.76697 | 37004 ft | 536 kts | 17° |
| 2026-05-09 00:27 | 36.31018 | -83.72060 | 37006 ft | 536 kts | 17° |
| 2026-05-09 00:28 | 36.37455 | -83.67413 | 37009 ft | 536 kts | 18° |
| 2026-05-09 00:28 | 36.43892 | -83.62752 | 37011 ft | 535 kts | 17° |
| 2026-05-09 00:29 | 36.50330 | -83.58103 | 37022 ft | 535 kts | 17° |
| 2026-05-09 00:29 | 36.56756 | -83.53461 | 37022 ft | 534 kts | 17° |
| 2026-05-09 00:30 | 36.63170 | -83.48804 | 37019 ft | 534 kts | 18° |
| 2026-05-09 00:30 | 36.69580 | -83.44133 | 37017 ft | 534 kts | 18° |
| 2026-05-09 00:31 | 36.75978 | -83.39451 | 37010 ft | 533 kts | 18° |
| 2026-05-09 00:31 | 36.82375 | -83.34773 | 36994 ft | 532 kts | 18° |
| 2026-05-09 00:32 | 36.88765 | -83.30088 | 37003 ft | 533 kts | 18° |
| 2026-05-09 00:32 | 36.95161 | -83.25391 | 37013 ft | 533 kts | 18° |
| 2026-05-09 00:33 | 37.01542 | -83.20686 | 37019 ft | 532 kts | 18° |
| 2026-05-09 00:33 | 37.07920 | -83.15976 | 37016 ft | 532 kts | 18° |
| 2026-05-09 00:34 | 37.14288 | -83.11256 | 37009 ft | 532 kts | 18° |
| 2026-05-09 00:34 | 37.20658 | -83.06537 | 37005 ft | 532 kts | 18° |
| 2026-05-09 00:35 | 37.27026 | -83.01831 | 36999 ft | 529 kts | 17° |
| 2026-05-09 00:35 | 37.33469 | -82.97478 | 37006 ft | 523 kts | 13° |
| 2026-05-09 00:36 | 37.39910 | -82.93412 | 37005 ft | 521 kts | 13° |
| 2026-05-09 00:36 | 37.46377 | -82.89278 | 36998 ft | 522 kts | 14° |
| 2026-05-09 00:37 | 37.52820 | -82.85033 | 36996 ft | 523 kts | 14° |
| 2026-05-09 00:37 | 37.59247 | -82.80738 | 36999 ft | 522 kts | 14° |
| 2026-05-09 00:38 | 37.65651 | -82.76468 | 36358 ft | 519 kts | 14° |
| 2026-05-09 00:38 | 37.68842 | -82.74360 | 35702 ft | 518 kts | 14° |
| 2026-05-09 00:38 | 37.72039 | -82.72263 | 34925 ft | 519 kts | 14° |
| 2026-05-09 00:38 | 37.75263 | -82.70147 | 33979 ft | 524 kts | 14° |
| 2026-05-09 00:39 | 37.78512 | -82.68011 | 33013 ft | 529 kts | 14° |
| 2026-05-09 00:39 | 37.81777 | -82.65850 | 32216 ft | 529 kts | 15° |
| 2026-05-09 00:39 | 37.85025 | -82.63684 | 31470 ft | 527 kts | 16° |
| 2026-05-09 00:39 | 37.88247 | -82.61524 | 31101 ft | 521 kts | 17° |
| 2026-05-09 00:40 | 37.91442 | -82.59375 | 30932 ft | 518 kts | 17° |
| 2026-05-09 00:40 | 37.97799 | -82.55113 | 30978 ft | 515 kts | 17° |
| 2026-05-09 00:41 | 38.07160 | -82.48263 | 30934 ft | 518 kts | 21° |
| 2026-05-09 00:41 | 38.10213 | -82.45833 | 30046 ft | 520 kts | 22° |
| 2026-05-09 00:41 | 38.13277 | -82.43388 | 29144 ft | 519 kts | 23° |
| 2026-05-09 00:42 | 38.16305 | -82.40983 | 28527 ft | 509 kts | 23° |
| 2026-05-09 00:42 | 38.19297 | -82.38624 | 27675 ft | 504 kts | 23° |
| 2026-05-09 00:42 | 38.22268 | -82.36312 | 26755 ft | 500 kts | 23° |
| 2026-05-09 00:42 | 38.25235 | -82.34029 | 25907 ft | 495 kts | 23° |
| 2026-05-09 00:43 | 38.28164 | -82.31792 | 25125 ft | 488 kts | 24° |
| 2026-05-09 00:43 | 38.31079 | -82.29569 | 23920 ft | 492 kts | 24° |
| 2026-05-09 00:43 | 38.34020 | -82.27313 | 23323 ft | 494 kts | 25° |
| 2026-05-09 00:43 | 38.36950 | -82.25042 | 23072 ft | 493 kts | 25° |
| 2026-05-09 00:44 | 38.39875 | -82.22760 | 22897 ft | 492 kts | 25° |
| 2026-05-09 00:44 | 38.42796 | -82.20503 | 22952 ft | 490 kts | 23° |
| 2026-05-09 00:44 | 38.45869 | -82.18701 | 22941 ft | 482 kts | 13° |
| 2026-05-09 00:44 | 38.49064 | -82.17576 | 22943 ft | 473 kts | 4° |
| 2026-05-09 00:45 | 38.52308 | -82.17071 | 22944 ft | 466 kts | 356° |
| 2026-05-09 00:45 | 38.55523 | -82.17186 | 22940 ft | 458 kts | 347° |
| 2026-05-09 00:45 | 38.58662 | -82.17758 | 22943 ft | 456 kts | 345° |
| 2026-05-09 00:45 | 38.61796 | -82.18356 | 22943 ft | 456 kts | 345° |
| 2026-05-09 00:46 | 38.64934 | -82.18952 | 22943 ft | 455 kts | 345° |
| 2026-05-09 00:46 | 38.68068 | -82.19537 | 22938 ft | 455 kts | 345° |
| 2026-05-09 00:46 | 38.71203 | -82.20116 | 22937 ft | 455 kts | 345° |
| 2026-05-09 00:46 | 38.74337 | -82.20698 | 22938 ft | 455 kts | 345° |
| 2026-05-09 00:47 | 38.77470 | -82.21281 | 22940 ft | 455 kts | 345° |
| 2026-05-09 00:47 | 38.80606 | -82.21867 | 22807 ft | 456 kts | 345° |
| 2026-05-09 00:47 | 38.83739 | -82.22460 | 22555 ft | 454 kts | 345° |
| 2026-05-09 00:47 | 38.86856 | -82.23048 | 22297 ft | 452 kts | 345° |
| 2026-05-09 00:48 | 38.89947 | -82.23622 | 21372 ft | 448 kts | 345° |
| 2026-05-09 00:48 | 38.93017 | -82.24191 | 20432 ft | 443 kts | 345° |
| 2026-05-09 00:48 | 38.96046 | -82.24758 | 19540 ft | 437 kts | 345° |
| 2026-05-09 00:48 | 38.98996 | -82.25316 | 18667 ft | 432 kts | 345° |
| 2026-05-09 00:49 | 39.01950 | -82.25880 | 17812 ft | 426 kts | 346° |
| 2026-05-09 00:49 | 39.04865 | -82.26438 | 17024 ft | 420 kts | 346° |
| 2026-05-09 00:49 | 39.07736 | -82.26981 | 16262 ft | 415 kts | 346° |
| 2026-05-09 00:49 | 39.10577 | -82.27517 | 15470 ft | 411 kts | 346° |
| 2026-05-09 00:50 | 39.13391 | -82.28046 | 14725 ft | 407 kts | 346° |
| 2026-05-09 00:50 | 39.16175 | -82.28569 | 13994 ft | 403 kts | 346° |
| 2026-05-09 00:50 | 39.18935 | -82.29097 | 13286 ft | 399 kts | 347° |
| 2026-05-09 00:50 | 39.21675 | -82.29621 | 12600 ft | 397 kts | 347° |
| 2026-05-09 00:51 | 39.24425 | -82.30146 | 11898 ft | 392 kts | 347° |
| 2026-05-09 00:51 | 39.27070 | -82.30648 | 11332 ft | 385 kts | 347° |
| 2026-05-09 00:51 | 39.29649 | -82.31130 | 11197 ft | 365 kts | 347° |
| 2026-05-09 00:51 | 39.32102 | -82.31583 | 11071 ft | 347 kts | 347° |
| 2026-05-09 00:52 | 39.34435 | -82.32017 | 10935 ft | 331 kts | 347° |
| 2026-05-09 00:52 | 39.36669 | -82.32439 | 10815 ft | 318 kts | 347° |
| 2026-05-09 00:52 | 39.38811 | -82.32848 | 10690 ft | 305 kts | 346° |
| 2026-05-09 00:52 | 39.40880 | -82.33245 | 10483 ft | 297 kts | 346° |
| 2026-05-09 00:53 | 39.42910 | -82.33639 | 10411 ft | 295 kts | 346° |
| 2026-05-09 00:53 | 39.44942 | -82.34035 | 10339 ft | 296 kts | 346° |
| 2026-05-09 00:53 | 39.46978 | -82.34433 | 10221 ft | 296 kts | 346° |
| 2026-05-09 00:53 | 39.49006 | -82.34873 | 10092 ft | 294 kts | 341° |
| 2026-05-09 00:54 | 39.50892 | -82.35785 | 9944 ft | 287 kts | 327° |
| 2026-05-09 00:54 | 39.52539 | -82.37205 | 9703 ft | 284 kts | 318° |
| 2026-05-09 00:54 | 39.54129 | -82.38726 | 9473 ft | 284 kts | 319° |
| 2026-05-09 00:54 | 39.55728 | -82.40238 | 9249 ft | 285 kts | 319° |
| 2026-05-09 00:55 | 39.57335 | -82.41753 | 9022 ft | 286 kts | 319° |
| 2026-05-09 00:55 | 39.58945 | -82.43265 | 8795 ft | 286 kts | 319° |
| 2026-05-09 00:55 | 39.60560 | -82.44772 | 8567 ft | 285 kts | 319° |
| 2026-05-09 00:55 | 39.62164 | -82.46280 | 8344 ft | 284 kts | 319° |
| 2026-05-09 00:56 | 39.63761 | -82.47792 | 8120 ft | 284 kts | 319° |
| 2026-05-09 00:56 | 39.65349 | -82.49300 | 7892 ft | 282 kts | 319° |
| 2026-05-09 00:56 | 39.66927 | -82.50800 | 7666 ft | 280 kts | 319° |
| 2026-05-09 00:56 | 39.68501 | -82.52297 | 7450 ft | 280 kts | 319° |
| 2026-05-09 00:57 | 39.70059 | -82.53777 | 7228 ft | 279 kts | 319° |
| 2026-05-09 00:57 | 39.71625 | -82.55260 | 6999 ft | 278 kts | 320° |
| 2026-05-09 00:57 | 39.73206 | -82.56694 | 6786 ft | 276 kts | 321° |
| 2026-05-09 00:57 | 39.74799 | -82.58091 | 6574 ft | 276 kts | 321° |
| 2026-05-09 00:58 | 39.76411 | -82.59438 | 6345 ft | 277 kts | 328° |
| 2026-05-09 00:58 | 39.78209 | -82.60354 | 5938 ft | 278 kts | 337° |
| 2026-05-09 00:58 | 39.80039 | -82.61142 | 5516 ft | 276 kts | 338° |
| 2026-05-09 00:58 | 39.81836 | -82.61915 | 5309 ft | 266 kts | 338° |
| 2026-05-09 00:59 | 39.83551 | -82.62658 | 5187 ft | 253 kts | 338° |
| 2026-05-09 00:59 | 39.85187 | -82.63366 | 5058 ft | 242 kts | 338° |
| 2026-05-09 00:59 | 39.86754 | -82.64040 | 4923 ft | 233 kts | 338° |
| 2026-05-09 00:59 | 39.88276 | -82.64696 | 4682 ft | 229 kts | 338° |
| 2026-05-09 01:00 | 39.89784 | -82.65351 | 4395 ft | 228 kts | 338° |
| 2026-05-09 01:00 | 39.91277 | -82.66013 | 4114 ft | 226 kts | 338° |
| 2026-05-09 01:00 | 39.92737 | -82.66664 | 3986 ft | 217 kts | 338° |
| 2026-05-09 01:00 | 39.94141 | -82.67294 | 3774 ft | 211 kts | 338° |
| 2026-05-09 01:01 | 39.95523 | -82.67920 | 3366 ft | 210 kts | 337° |
| 2026-05-09 01:01 | 39.96731 | -82.68891 | 3027 ft | 202 kts | 310° |
| 2026-05-09 01:01 | 39.97579 | -82.70361 | 3006 ft | 204 kts | 303° |
| 2026-05-09 01:01 | 39.98218 | -82.71973 | 2988 ft | 196 kts | 284° |
| 2026-05-09 01:02 | 39.98380 | -82.73706 | 2839 ft | 191 kts | 274° |
| 2026-05-09 01:02 | 39.98476 | -82.75406 | 2613 ft | 185 kts | 273° |
| 2026-05-09 01:02 | 39.98567 | -82.77004 | 2394 ft | 167 kts | 274° |
| 2026-05-09 01:02 | 39.98649 | -82.78425 | 2175 ft | 150 kts | 274° |
| 2026-05-09 01:03 | 39.98727 | -82.79749 | 1980 ft | 144 kts | 275° |
| 2026-05-09 01:03 | 39.98803 | -82.81040 | 1806 ft | 142 kts | 273° |
| 2026-05-09 01:03 | 39.98871 | -82.82316 | 1662 ft | 141 kts | 274° |
| 2026-05-09 01:03 | 39.98946 | -82.83586 | 1482 ft | 141 kts | 274° |
| 2026-05-09 01:04 | 39.99025 | -82.84856 | 1249 ft | 140 kts | 273° |
| 2026-05-09 01:04 | 39.99092 | -82.86119 | 1024 ft | 139 kts | 273° |
| 2026-05-09 01:04 | 39.99165 | -82.87357 | 867 ft | 139 kts | 274° |
| 2026-05-09 01:04 | 39.99229 | -82.88501 | 826 ft | 96 kts | 274° |
| 2026-05-09 01:05 | 39.99266 | -82.89169 | 825 ft | 50 kts | 274° |
| 2026-05-09 01:05 | 39.99345 | -82.89570 | 825 ft | 28 kts | 307° |
| 2026-05-09 01:05 | 39.99453 | -82.89698 | 825 ft | 6 kts | 16° |
| 2026-05-09 01:06 | 39.99468 | -82.89662 | 825 ft | 0 kts | 89° |
| 2026-05-09 01:07 | 39.99468 | -82.89651 | 825 ft | 7 kts | 89° |
| 2026-05-09 01:07 | 39.99466 | -82.89567 | 825 ft | 11 kts | 94° |
| 2026-05-09 01:07 | 39.99460 | -82.89463 | 825 ft | 14 kts | 94° |
| 2026-05-09 01:07 | 39.99452 | -82.89320 | 825 ft | 16 kts | 94° |
| 2026-05-09 01:08 | 39.99444 | -82.89177 | 825 ft | 17 kts | 95° |
| 2026-05-09 01:08 | 39.99434 | -82.88987 | 825 ft | 22 kts | 95° |
| 2026-05-09 01:08 | 39.99422 | -82.88788 | 825 ft | 22 kts | 94° |
| 2026-05-09 01:08 | 39.99411 | -82.88594 | 823 ft | 21 kts | 94° |
| 2026-05-09 01:09 | 39.99400 | -82.88405 | 825 ft | 21 kts | 94° |
| 2026-05-09 01:09 | 39.99497 | -82.88321 | 823 ft | 19 kts | 3° |
| 2026-05-09 01:09 | 39.99583 | -82.88313 | 823 ft | 19 kts | 4° |
| 2026-05-09 01:09 | 39.99721 | -82.88276 | 825 ft | 7 kts | 28° |
| 2026-05-09 01:10 | 39.99741 | -82.88263 | 825 ft | 0 kts | 28° |